createdAt,value
2019-01-04T00:00:14.532Z,22.40
2019-01-04T00:01:14.494Z,19.00
2019-01-04T00:02:14.458Z,20.60
2019-01-04T00:03:14.419Z,22.50
2019-01-04T00:04:14.382Z,20.30
2019-01-04T00:05:14.348Z,20.30
2019-01-04T00:06:14.309Z,21.20
2019-01-04T00:07:14.271Z,24.40
2019-01-04T00:08:14.235Z,20.90
2019-01-04T00:09:14.198Z,24.10
2019-01-04T00:10:14.163Z,25.60
2019-01-04T00:11:14.123Z,23.30
2019-01-04T00:12:14.087Z,20.10
2019-01-04T00:13:14.049Z,23.80
2019-01-04T00:14:14.011Z,25.50
2019-01-04T00:15:13.975Z,27.00
2019-01-04T00:16:13.937Z,23.00
2019-01-04T00:17:13.900Z,20.60
2019-01-04T00:18:13.863Z,26.10
2019-01-04T00:19:13.827Z,27.00
2019-01-04T00:20:13.788Z,26.80
2019-01-04T00:21:13.751Z,26.20
2019-01-04T00:22:13.715Z,24.40
2019-01-04T00:23:13.677Z,22.90
2019-01-04T00:24:13.656Z,22.00
2019-01-04T00:25:13.602Z,22.50
2019-01-04T00:26:13.566Z,25.40
2019-01-04T00:27:13.529Z,24.10
2019-01-04T00:28:13.490Z,31.60
2019-01-04T00:29:13.454Z,25.20
2019-01-04T00:30:13.417Z,26.20
2019-01-04T00:31:13.379Z,26.30
2019-01-04T00:32:13.342Z,27.50
2019-01-04T00:33:13.305Z,23.40
2019-01-04T00:34:13.269Z,30.20
2019-01-04T00:35:13.230Z,27.70
2019-01-04T00:36:13.195Z,25.10
2019-01-04T00:37:13.158Z,28.90
2019-01-04T00:38:13.120Z,24.30
2019-01-04T00:39:13.083Z,24.70
2019-01-04T00:40:13.046Z,25.60
2019-01-04T00:41:13.008Z,26.90
2019-01-04T00:42:12.970Z,22.40
2019-01-04T00:43:12.935Z,28.20
2019-01-04T00:44:12.903Z,26.80
2019-01-04T00:45:12.861Z,24.00
2019-01-04T00:46:12.826Z,22.50
2019-01-04T00:47:12.786Z,24.30
2019-01-04T00:48:12.749Z,20.50
2019-01-04T00:49:12.711Z,23.10
2019-01-04T00:50:12.677Z,25.20
2019-01-04T00:51:12.636Z,26.10
2019-01-04T00:52:12.652Z,26.60
2019-01-04T00:53:12.564Z,28.10
2019-01-04T00:54:12.525Z,28.30
2019-01-04T00:55:12.486Z,28.70
2019-01-04T00:56:12.450Z,35.80
2019-01-04T00:57:12.419Z,33.70
2019-01-04T00:58:12.377Z,28.40
2019-01-04T00:59:12.340Z,28.40
2019-01-04T01:00:12.304Z,28.30
2019-01-04T01:01:12.265Z,30.90
2019-01-04T01:02:12.228Z,28.60
2019-01-04T01:03:12.192Z,27.90
2019-01-04T01:04:12.155Z,28.30
2019-01-04T01:05:12.117Z,25.80
2019-01-04T01:06:12.083Z,27.00
2019-01-04T01:07:12.041Z,27.40
2019-01-04T01:08:12.006Z,28.40
2019-01-04T01:09:11.967Z,29.70
2019-01-04T01:10:11.931Z,26.80
2019-01-04T01:11:11.893Z,24.00
2019-01-04T01:12:11.858Z,25.10
2019-01-04T01:13:11.818Z,25.70
2019-01-04T01:14:11.784Z,26.10
2019-01-04T01:15:11.744Z,30.50
2019-01-04T01:16:11.707Z,29.70
2019-01-04T01:17:11.671Z,25.20
2019-01-04T01:18:11.634Z,24.20
2019-01-04T01:19:11.599Z,26.40
2019-01-04T01:20:11.560Z,25.60
2019-01-04T01:21:11.523Z,25.10
2019-01-04T01:22:11.485Z,25.40
2019-01-04T01:23:11.448Z,26.30
2019-01-04T01:24:11.412Z,28.60
2019-01-04T01:25:11.373Z,25.50
2019-01-04T01:26:11.337Z,22.80
2019-01-04T01:27:11.300Z,25.70
2019-01-04T01:28:11.264Z,22.90
2019-01-04T01:29:11.226Z,27.90
2019-01-04T01:30:11.189Z,23.80
2019-01-04T01:31:11.151Z,21.50
2019-01-04T01:32:11.114Z,22.20
2019-01-04T01:33:11.176Z,24.90
2019-01-04T01:34:11.039Z,24.30
2019-01-04T01:35:11.003Z,28.50
2019-01-04T01:36:10.966Z,25.40
2019-01-04T01:37:10.929Z,25.60
2019-01-04T01:38:10.893Z,25.50
2019-01-04T01:39:10.853Z,22.10
2019-01-04T01:40:10.817Z,21.80
2019-01-04T01:41:10.781Z,24.40
2019-01-04T01:42:10.742Z,22.50
2019-01-04T01:43:10.705Z,24.00
2019-01-04T01:44:10.668Z,23.30
2019-01-04T01:45:10.631Z,23.60
2019-01-04T01:46:10.594Z,26.10
2019-01-04T01:47:10.557Z,23.40
2019-01-04T01:48:10.518Z,25.90
2019-01-04T01:49:10.482Z,24.50
2019-01-04T01:50:10.445Z,24.90
2019-01-04T01:51:10.409Z,23.50
2019-01-04T01:52:10.371Z,25.50
2019-01-04T01:53:10.334Z,22.60
2019-01-04T01:54:10.297Z,20.60
2019-01-04T01:55:10.259Z,27.40
2019-01-04T01:56:10.223Z,24.60
2019-01-04T01:57:10.188Z,23.60
2019-01-04T01:58:10.149Z,25.20
2019-01-04T01:59:10.110Z,23.40
2019-01-04T02:00:10.073Z,22.50
2019-01-04T02:01:10.036Z,21.90
2019-01-04T02:02:10.000Z,22.80
2019-01-04T02:03:09.961Z,22.40
2019-01-04T02:04:09.924Z,22.90
2019-01-04T02:05:09.888Z,24.20
2019-01-04T02:06:09.850Z,23.30
2019-01-04T02:07:09.813Z,23.20
2019-01-04T02:08:09.775Z,21.20
2019-01-04T02:09:09.739Z,21.80
2019-01-04T02:10:09.702Z,20.40
2019-01-04T02:11:09.664Z,22.10
2019-01-04T02:12:09.627Z,23.40
2019-01-04T02:13:09.592Z,18.80
2019-01-04T02:14:09.553Z,18.90
2019-01-04T02:15:09.518Z,20.60
2019-01-04T02:16:09.479Z,19.70
2019-01-04T02:17:09.442Z,20.50
2019-01-04T02:18:09.406Z,20.10
2019-01-04T02:19:09.374Z,18.50
2019-01-04T02:20:09.332Z,19.70
2019-01-04T02:21:09.294Z,19.50
2019-01-04T02:22:09.258Z,22.90
2019-01-04T02:23:09.220Z,22.70
2019-01-04T02:24:09.183Z,17.60
2019-01-04T02:25:09.147Z,20.60
2019-01-04T02:26:09.110Z,22.80
2019-01-04T02:27:09.072Z,22.20
2019-01-04T02:28:09.036Z,19.70
2019-01-04T02:29:08.999Z,19.50
2019-01-04T02:30:08.973Z,23.50
2019-01-04T02:31:08.926Z,22.40
2019-01-04T02:32:08.887Z,19.40
2019-01-04T02:33:08.850Z,22.90
2019-01-04T02:34:08.815Z,20.60
2019-01-04T02:35:08.778Z,21.70
2019-01-04T02:36:08.753Z,25.20
2019-01-04T02:37:08.707Z,22.70
2019-01-04T02:38:08.666Z,20.10
2019-01-04T02:39:08.629Z,21.00
2019-01-04T02:40:08.592Z,19.20
2019-01-04T02:41:08.555Z,18.20
2019-01-04T02:42:08.528Z,21.40
2019-01-04T02:43:08.480Z,22.90
2019-01-04T02:44:08.446Z,18.90
2019-01-04T02:45:08.412Z,20.90
2019-01-04T02:46:08.371Z,19.60
2019-01-04T02:47:08.334Z,23.40
2019-01-04T02:48:08.296Z,20.30
2019-01-04T02:49:08.261Z,22.00
2019-01-04T02:50:08.228Z,20.60
2019-01-04T02:51:08.188Z,18.90
2019-01-04T02:52:08.151Z,20.10
2019-01-04T02:53:08.113Z,20.50
2019-01-04T02:54:08.079Z,20.10
2019-01-04T02:55:08.140Z,19.60
2019-01-04T02:56:08.004Z,20.00
2019-01-04T02:57:07.968Z,22.10
2019-01-04T02:58:07.930Z,25.00
2019-01-04T02:59:07.897Z,19.20
2019-01-04T03:00:07.856Z,22.30
2019-01-04T03:01:07.821Z,24.30
2019-01-04T03:02:07.784Z,21.50
2019-01-04T03:03:07.747Z,18.20
2019-01-04T03:04:07.712Z,19.50
2019-01-04T03:05:07.679Z,24.60
2019-01-04T03:06:07.638Z,22.60
2019-01-04T03:07:07.600Z,21.10
2019-01-04T03:08:07.564Z,24.20
2019-01-04T03:09:07.529Z,21.90
2019-01-04T03:10:07.491Z,21.50
2019-01-04T03:11:07.454Z,19.70
2019-01-04T03:12:07.420Z,25.90
2019-01-04T03:13:07.384Z,20.90
2019-01-04T03:14:07.345Z,23.30
2019-01-04T03:15:07.311Z,20.50
2019-01-04T03:16:07.275Z,21.90
2019-01-04T03:17:07.236Z,23.30
2019-01-04T03:18:07.199Z,19.50
2019-01-04T03:19:07.163Z,21.40
2019-01-04T03:20:07.125Z,21.00
2019-01-04T03:21:07.091Z,20.50
2019-01-04T03:22:07.055Z,19.20
2019-01-04T03:23:07.038Z,22.30
2019-01-04T03:24:06.980Z,24.70
2019-01-04T03:25:06.945Z,20.50
2019-01-04T03:26:06.909Z,23.30
2019-01-04T03:27:06.871Z,22.10
2019-01-04T03:28:06.836Z,22.00
2019-01-04T03:29:06.800Z,22.60
2019-01-04T03:30:06.764Z,19.00
2019-01-04T03:31:06.728Z,21.50
2019-01-04T03:32:06.692Z,20.60
2019-01-04T03:33:06.660Z,22.60
2019-01-04T03:34:06.617Z,19.50
2019-01-04T03:35:06.580Z,18.80
2019-01-04T03:36:06.544Z,20.50
2019-01-04T03:37:06.509Z,22.60
2019-01-04T03:38:06.473Z,23.10
2019-01-04T03:39:06.438Z,23.20
2019-01-04T03:40:06.403Z,17.70
2019-01-04T03:41:06.375Z,20.60
2019-01-04T03:42:06.328Z,19.50
2019-01-04T03:43:06.291Z,18.80
2019-01-04T03:44:06.260Z,22.50
2019-01-04T03:45:06.220Z,16.80
2019-01-04T03:46:06.185Z,19.70
2019-01-04T03:47:06.152Z,19.70
2019-01-04T03:48:06.112Z,17.20
2019-01-04T03:49:06.075Z,19.50
2019-01-04T03:50:06.049Z,20.00
2019-01-04T03:51:06.000Z,21.40
2019-01-04T03:52:05.966Z,19.80
2019-01-04T03:53:05.929Z,20.30
2019-01-04T03:54:05.895Z,20.40
2019-01-04T03:55:05.858Z,20.60
2019-01-04T03:56:05.821Z,19.60
2019-01-04T03:57:05.785Z,19.20
2019-01-04T03:58:05.750Z,18.00
2019-01-04T03:59:05.714Z,20.70
2019-01-04T04:00:05.677Z,22.30
2019-01-04T04:01:05.640Z,22.00
2019-01-04T04:02:05.611Z,18.20
2019-01-04T04:03:05.567Z,17.30
2019-01-04T04:04:05.532Z,19.00
2019-01-04T04:05:05.497Z,18.30
2019-01-04T04:06:05.462Z,19.40
2019-01-04T04:07:05.423Z,17.00
2019-01-04T04:08:05.388Z,20.10
2019-01-04T04:09:05.352Z,17.20
2019-01-04T04:10:05.317Z,15.70
2019-01-04T04:11:05.297Z,17.70
2019-01-04T04:12:05.244Z,21.30
2019-01-04T04:13:05.210Z,19.00
2019-01-04T04:14:05.171Z,15.40
2019-01-04T04:15:05.135Z,18.40
2019-01-04T04:16:05.101Z,18.40
2019-01-04T04:17:05.063Z,17.50
2019-01-04T04:18:05.037Z,18.00
2019-01-04T04:19:04.992Z,17.40
2019-01-04T04:20:04.956Z,16.00
2019-01-04T04:21:04.920Z,15.90
2019-01-04T04:22:04.885Z,16.60
2019-01-04T04:23:04.848Z,18.90
2019-01-04T04:24:04.811Z,19.20
2019-01-04T04:25:04.776Z,13.50
2019-01-04T04:26:04.740Z,15.30
2019-01-04T04:27:04.702Z,15.80
2019-01-04T04:28:04.668Z,20.70
2019-01-04T04:29:04.633Z,20.50
2019-01-04T04:30:04.596Z,16.10
2019-01-04T04:31:04.561Z,18.40
2019-01-04T04:32:04.523Z,17.70
2019-01-04T04:33:04.589Z,15.90
2019-01-04T04:34:04.452Z,18.70
2019-01-04T04:35:04.414Z,16.90
2019-01-04T04:36:04.379Z,15.90
2019-01-04T04:37:04.344Z,15.70
2019-01-04T04:38:04.307Z,15.60
2019-01-04T04:39:04.270Z,15.80
2019-01-04T04:40:04.238Z,18.20
2019-01-04T04:41:04.201Z,16.10
2019-01-04T04:42:04.165Z,16.40
2019-01-04T04:43:04.128Z,17.40
2019-01-04T04:44:04.094Z,20.50
2019-01-04T04:45:04.056Z,20.70
2019-01-04T04:46:04.021Z,19.70
2019-01-04T04:47:03.983Z,18.10
2019-01-04T04:48:03.946Z,14.70
2019-01-04T04:49:03.912Z,17.60
2019-01-04T04:50:03.875Z,19.40
2019-01-04T04:51:03.839Z,16.40
2019-01-04T04:52:03.803Z,16.50
2019-01-04T04:53:03.771Z,16.10
2019-01-04T04:54:03.730Z,17.70
2019-01-04T04:55:03.694Z,14.30
2019-01-04T04:56:03.658Z,17.00
2019-01-04T04:57:03.623Z,20.30
2019-01-04T04:58:03.587Z,16.20
2019-01-04T04:59:03.551Z,16.90
2019-01-04T05:00:03.514Z,16.20
2019-01-04T05:01:03.481Z,15.30
2019-01-04T05:02:03.445Z,18.80
2019-01-04T05:03:03.408Z,13.80
2019-01-04T05:04:03.371Z,15.60
2019-01-04T05:05:03.337Z,16.70
2019-01-04T05:06:03.300Z,17.60
2019-01-04T05:07:03.262Z,13.90
2019-01-04T05:08:03.227Z,15.70
2019-01-04T05:09:03.192Z,19.10
2019-01-04T05:10:03.159Z,16.20
2019-01-04T05:11:03.120Z,14.30
2019-01-04T05:12:03.085Z,16.30
2019-01-04T05:13:03.049Z,16.70
2019-01-04T05:14:03.019Z,16.10
2019-01-04T05:15:02.975Z,17.10
2019-01-04T05:16:02.939Z,16.20
2019-01-04T05:17:02.903Z,14.50
2019-01-04T05:18:02.869Z,14.00
2019-01-04T05:19:02.831Z,15.50
2019-01-04T05:20:02.798Z,14.90
2019-01-04T05:21:02.770Z,18.30
2019-01-04T05:22:02.724Z,19.20
2019-01-04T05:23:02.687Z,14.90
2019-01-04T05:24:02.652Z,14.10
2019-01-04T05:25:02.615Z,13.50
2019-01-04T05:26:02.583Z,16.00
2019-01-04T05:27:02.542Z,18.50
2019-01-04T05:28:02.507Z,17.90
2019-01-04T05:29:02.472Z,20.60
2019-01-04T05:30:02.435Z,13.10
2019-01-04T05:31:02.400Z,14.50
2019-01-04T05:32:02.363Z,16.30
2019-01-04T05:33:02.330Z,16.50
2019-01-04T05:34:02.292Z,14.70
2019-01-04T05:35:02.254Z,17.40
2019-01-04T05:36:02.219Z,17.80
2019-01-04T05:37:02.183Z,17.30
2019-01-04T05:38:02.150Z,19.30
2019-01-04T05:39:02.121Z,17.00
2019-01-04T05:40:02.076Z,14.70
2019-01-04T05:41:02.040Z,19.70
2019-01-04T05:42:02.007Z,17.90
2019-01-04T05:43:01.968Z,15.10
2019-01-04T05:44:01.932Z,19.20
2019-01-04T05:45:01.898Z,18.80
2019-01-04T05:46:01.864Z,19.10
2019-01-04T05:47:01.824Z,16.60
2019-01-04T05:48:01.788Z,17.20
2019-01-04T05:49:01.756Z,17.30
2019-01-04T05:50:01.718Z,17.00
2019-01-04T05:51:01.680Z,18.70
2019-01-04T05:52:01.645Z,18.90
2019-01-04T05:53:01.610Z,22.00
2019-01-04T05:54:01.573Z,18.50
2019-01-04T05:55:01.542Z,20.30
2019-01-04T05:56:01.509Z,20.30
2019-01-04T05:57:01.466Z,16.30
2019-01-04T05:58:01.431Z,18.50
2019-01-04T05:59:01.395Z,20.60
2019-01-04T06:00:01.359Z,21.80
2019-01-04T06:01:01.325Z,19.60
2019-01-04T06:02:01.287Z,24.60
2019-01-04T06:03:01.252Z,23.00
2019-01-04T06:04:01.215Z,20.50
2019-01-04T06:05:01.178Z,22.20
2019-01-04T06:06:01.142Z,22.20
2019-01-04T06:07:01.106Z,21.50
2019-01-04T06:08:01.070Z,25.40
2019-01-04T06:09:01.034Z,22.80
2019-01-04T06:10:00.999Z,21.60
2019-01-04T06:11:00.963Z,20.30
2019-01-04T06:12:00.926Z,27.50
2019-01-04T06:13:00.892Z,24.80
2019-01-04T06:14:00.855Z,22.80
2019-01-04T06:15:00.819Z,28.30
2019-01-04T06:16:00.783Z,26.80
2019-01-04T06:17:00.746Z,25.70
2019-01-04T06:18:00.713Z,23.80
2019-01-04T06:19:00.675Z,27.30
2019-01-04T06:20:00.640Z,25.20
2019-01-04T06:21:00.608Z,20.80
2019-01-04T06:22:00.569Z,26.00
2019-01-04T06:23:00.531Z,27.60
2019-01-04T06:24:00.497Z,23.40
2019-01-04T06:25:00.460Z,21.90
2019-01-04T06:26:00.426Z,22.90
2019-01-04T06:27:00.389Z,28.60
2019-01-04T06:28:00.353Z,23.60
2019-01-04T06:29:00.318Z,28.30
2019-01-04T06:30:00.282Z,24.00
2019-01-04T06:31:00.248Z,25.60
2019-01-04T06:32:00.209Z,23.20
2019-01-04T06:33:00.178Z,25.20
2019-01-04T06:34:00.145Z,27.90
2019-01-04T06:35:00.203Z,26.40
2019-01-04T06:36:00.069Z,23.00
2019-01-04T06:37:00.034Z,23.80
2019-01-04T06:38:00.085Z,24.30
2019-01-04T06:38:59.960Z,26.70
2019-01-04T06:39:59.925Z,28.30
2019-01-04T06:40:59.889Z,25.50
2019-01-04T06:41:59.853Z,25.90
2019-01-04T06:42:59.815Z,23.90
2019-01-04T06:43:59.781Z,24.90
2019-01-04T06:44:59.745Z,29.60
2019-01-04T06:45:59.715Z,29.20
2019-01-04T06:46:59.673Z,26.50
2019-01-04T06:47:59.642Z,28.10
2019-01-04T06:48:59.603Z,32.20
2019-01-04T06:49:59.567Z,34.10
2019-01-04T06:50:59.531Z,29.60
2019-01-04T06:51:59.495Z,30.40
2019-01-04T06:52:59.459Z,28.40
2019-01-04T06:53:59.424Z,28.50
2019-01-04T06:54:59.390Z,33.40
2019-01-04T06:55:59.351Z,33.00
2019-01-04T06:56:59.317Z,41.20
2019-01-04T06:57:59.281Z,31.90
2019-01-04T06:58:59.245Z,36.00
2019-01-04T06:59:59.208Z,30.80
2019-01-04T07:00:59.174Z,35.40
2019-01-04T07:01:59.140Z,31.50
2019-01-04T07:02:59.101Z,32.60
2019-01-04T07:03:59.067Z,31.80
2019-01-04T07:04:59.067Z,31.40
2019-01-04T07:05:59.033Z,27.90
2019-01-04T07:06:58.957Z,33.00
2019-01-04T07:07:58.922Z,30.50
2019-01-04T07:08:58.888Z,32.80
2019-01-04T07:09:58.851Z,37.30
2019-01-04T07:10:58.817Z,33.20
2019-01-04T07:11:58.780Z,34.10
2019-01-04T07:12:58.743Z,34.20
2019-01-04T07:13:58.709Z,35.00
2019-01-04T07:14:58.676Z,33.20
2019-01-04T07:15:58.636Z,30.30
2019-01-04T07:16:58.601Z,30.60
2019-01-04T07:17:58.566Z,36.40
2019-01-04T07:18:58.529Z,30.10
2019-01-04T07:19:58.494Z,26.50
2019-01-04T07:20:58.462Z,32.00
2019-01-04T07:21:58.422Z,36.80
2019-01-04T07:22:58.387Z,34.90
2019-01-04T07:23:58.352Z,31.60
2019-01-04T07:24:58.317Z,35.10
2019-01-04T07:25:58.281Z,39.60
2019-01-04T07:26:58.244Z,35.70
2019-01-04T07:27:58.212Z,39.60
2019-01-04T07:28:58.274Z,38.60
2019-01-04T07:29:58.137Z,32.70
2019-01-04T07:30:58.100Z,34.20
2019-01-04T07:31:58.084Z,37.80
2019-01-04T07:32:58.031Z,36.50
2019-01-04T07:33:57.994Z,45.60
2019-01-04T07:34:57.959Z,37.30
2019-01-04T07:35:57.923Z,36.50
2019-01-04T07:36:57.887Z,37.00
2019-01-04T07:37:57.851Z,33.60
2019-01-04T07:38:57.817Z,42.20
2019-01-04T07:39:57.781Z,38.80
2019-01-04T07:40:57.745Z,37.90
2019-01-04T07:41:57.714Z,38.70
2019-01-04T07:42:57.672Z,39.50
2019-01-04T07:43:57.636Z,34.40
2019-01-04T07:44:57.602Z,35.80
2019-01-04T07:45:57.572Z,34.50
2019-01-04T07:46:57.532Z,36.00
2019-01-04T07:47:57.495Z,34.30
2019-01-04T07:48:57.609Z,35.80
2019-01-04T07:49:57.426Z,37.00
2019-01-04T07:50:57.388Z,34.90
2019-01-04T07:51:57.351Z,33.40
2019-01-04T07:52:57.317Z,34.60
2019-01-04T07:53:57.282Z,36.50
2019-01-04T07:54:57.246Z,39.20
2019-01-04T07:55:57.211Z,37.30
2019-01-04T07:56:57.175Z,38.80
2019-01-04T07:57:57.139Z,41.50
2019-01-04T07:58:57.145Z,38.50
2019-01-04T07:59:57.067Z,41.80
2019-01-04T08:00:57.034Z,44.60
2019-01-04T08:01:56.998Z,40.30
2019-01-04T08:02:56.961Z,37.60
2019-01-04T08:03:56.926Z,36.60
2019-01-04T08:04:56.892Z,32.60
2019-01-04T08:05:56.855Z,37.00
2019-01-04T08:06:56.819Z,35.20
2019-01-04T08:07:56.784Z,33.60
2019-01-04T08:08:56.749Z,38.60
2019-01-04T08:09:56.715Z,36.20
2019-01-04T08:10:56.679Z,34.80
2019-01-04T08:11:56.645Z,34.40
2019-01-04T08:12:56.609Z,35.40
2019-01-04T08:13:56.573Z,40.40
2019-01-04T08:14:56.537Z,35.00
2019-01-04T08:15:56.501Z,37.50
2019-01-04T08:16:56.466Z,33.70
2019-01-04T08:17:56.432Z,35.90
2019-01-04T08:18:56.395Z,33.50
2019-01-04T08:19:56.359Z,35.80
2019-01-04T08:20:56.326Z,36.70
2019-01-04T08:21:56.291Z,32.80
2019-01-04T08:22:56.255Z,35.00
2019-01-04T08:23:56.217Z,33.40
2019-01-04T08:24:56.182Z,37.30
2019-01-04T08:25:56.149Z,35.30
2019-01-04T08:26:56.112Z,38.50
2019-01-04T08:27:56.076Z,38.80
2019-01-04T08:28:56.041Z,38.60
2019-01-04T08:29:56.009Z,37.50
2019-01-04T08:30:55.970Z,39.90
2019-01-04T08:31:55.936Z,36.60
2019-01-04T08:32:55.900Z,35.70
2019-01-04T08:33:55.864Z,36.40
2019-01-04T08:34:55.828Z,33.40
2019-01-04T08:35:55.793Z,33.60
2019-01-04T08:36:55.759Z,31.00
2019-01-04T08:37:55.723Z,41.40
2019-01-04T08:38:55.689Z,37.10
2019-01-04T08:39:55.652Z,36.70
2019-01-04T08:40:55.618Z,42.80
2019-01-04T08:41:55.581Z,38.00
2019-01-04T08:42:55.547Z,40.20
2019-01-04T08:43:55.511Z,36.00
2019-01-04T08:44:55.475Z,39.90
2019-01-04T08:45:55.441Z,36.50
2019-01-04T08:46:55.406Z,38.30
2019-01-04T08:47:55.369Z,38.40
2019-01-04T08:48:55.333Z,44.20
2019-01-04T08:49:55.301Z,39.60
2019-01-04T08:50:55.265Z,37.50
2019-01-04T08:51:55.228Z,35.70
2019-01-04T08:52:55.193Z,42.30
2019-01-04T08:53:55.161Z,43.20
2019-01-04T08:54:55.125Z,41.30
2019-01-04T08:55:55.087Z,38.60
2019-01-04T08:56:55.052Z,37.80
2019-01-04T08:57:55.019Z,45.20
2019-01-04T08:58:54.982Z,36.90
2019-01-04T08:59:54.947Z,38.90
2019-01-04T09:00:54.911Z,41.40
2019-01-04T09:01:54.875Z,36.50
2019-01-04T09:02:54.840Z,41.00
2019-01-04T09:03:54.805Z,33.90
2019-01-04T09:04:54.769Z,38.00
2019-01-04T09:05:54.736Z,42.00
2019-01-04T09:06:54.699Z,38.20
2019-01-04T09:07:54.665Z,37.70
2019-01-04T09:08:54.631Z,32.50
2019-01-04T09:09:54.595Z,40.80
2019-01-04T09:10:54.558Z,41.60
2019-01-04T09:11:54.524Z,39.60
2019-01-04T09:12:54.489Z,38.00
2019-01-04T09:13:54.454Z,36.40
2019-01-04T09:14:54.418Z,40.50
2019-01-04T09:15:54.384Z,37.90
2019-01-04T09:16:54.348Z,33.00
2019-01-04T09:17:54.312Z,38.90
2019-01-04T09:18:54.276Z,42.70
2019-01-04T09:19:54.243Z,39.80
2019-01-04T09:20:54.206Z,42.20
2019-01-04T09:21:54.171Z,37.00
2019-01-04T09:22:54.141Z,38.90
2019-01-04T09:23:54.101Z,40.20
2019-01-04T09:24:54.066Z,41.60
2019-01-04T09:25:54.030Z,35.70
2019-01-04T09:26:53.995Z,34.60
2019-01-04T09:27:53.961Z,31.40
2019-01-04T09:28:53.927Z,33.90
2019-01-04T09:29:53.892Z,40.90
2019-01-04T09:30:53.854Z,39.70
2019-01-04T09:31:53.820Z,40.00
2019-01-04T09:32:53.794Z,37.60
2019-01-04T09:33:53.750Z,36.50
2019-01-04T09:34:53.713Z,34.10
2019-01-04T09:35:53.679Z,37.40
2019-01-04T09:36:53.644Z,40.60
2019-01-04T09:37:53.609Z,39.70
2019-01-04T09:38:53.576Z,34.60
2019-01-04T09:39:53.538Z,36.40
2019-01-04T09:40:53.502Z,36.30
2019-01-04T09:41:53.469Z,34.80
2019-01-04T09:42:53.432Z,38.60
2019-01-04T09:43:53.398Z,37.90
2019-01-04T09:44:53.364Z,35.90
2019-01-04T09:45:53.329Z,37.10
2019-01-04T09:46:53.292Z,38.60
2019-01-04T09:47:53.257Z,34.80
2019-01-04T09:48:53.223Z,32.80
2019-01-04T09:49:53.188Z,26.20
2019-01-04T09:50:53.151Z,33.80
2019-01-04T09:51:53.117Z,40.30
2019-01-04T09:52:53.081Z,33.80
2019-01-04T09:53:53.046Z,33.20
2019-01-04T09:54:53.012Z,32.80
2019-01-04T09:55:52.976Z,31.60
2019-01-04T09:56:52.942Z,32.30
2019-01-04T09:57:52.907Z,35.30
2019-01-04T09:58:52.870Z,30.10
2019-01-04T09:59:52.837Z,33.00
2019-01-04T10:00:52.801Z,30.40
2019-01-04T10:01:52.767Z,34.90
2019-01-04T10:02:52.730Z,31.60
2019-01-04T10:03:52.695Z,30.00
2019-01-04T10:04:52.662Z,29.20
2019-01-04T10:05:52.627Z,26.30
2019-01-04T10:06:52.590Z,27.10
2019-01-04T10:07:52.556Z,24.90
2019-01-04T10:08:52.589Z,26.30
2019-01-04T10:09:52.489Z,25.70
2019-01-04T10:10:52.451Z,22.60
2019-01-04T10:11:52.420Z,21.10
2019-01-04T10:12:52.381Z,20.70
2019-01-04T10:13:52.348Z,26.70
2019-01-04T10:14:52.310Z,24.60
2019-01-04T10:15:52.276Z,26.50
2019-01-04T10:16:52.242Z,29.30
2019-01-04T10:17:52.207Z,23.80
2019-01-04T10:18:52.171Z,23.10
2019-01-04T10:19:52.135Z,24.30
2019-01-04T10:20:52.102Z,23.20
2019-01-04T10:21:52.066Z,20.10
2019-01-04T10:22:52.033Z,20.70
2019-01-04T10:23:51.996Z,19.70
2019-01-04T10:24:51.962Z,19.20
2019-01-04T10:25:51.928Z,19.40
2019-01-04T10:26:51.892Z,18.10
2019-01-04T10:27:51.857Z,20.20
2019-01-04T10:28:51.822Z,19.40
2019-01-04T10:29:51.789Z,19.10
2019-01-04T10:30:51.752Z,17.60
2019-01-04T10:31:51.721Z,18.10
2019-01-04T10:32:51.685Z,17.90
2019-01-04T10:33:51.649Z,18.90
2019-01-04T10:34:51.613Z,16.60
2019-01-04T10:35:51.579Z,19.30
2019-01-04T10:36:51.544Z,17.90
2019-01-04T10:37:51.509Z,17.90
2019-01-04T10:38:51.474Z,17.90
2019-01-04T10:39:51.439Z,19.40
2019-01-04T10:40:51.406Z,19.50
2019-01-04T10:41:51.374Z,17.20
2019-01-04T10:42:51.335Z,17.30
2019-01-04T10:43:51.300Z,19.00
2019-01-04T10:44:51.266Z,15.60
2019-01-04T10:45:51.232Z,18.70
2019-01-04T10:46:51.195Z,19.30
2019-01-04T10:47:51.162Z,18.30
2019-01-04T10:48:51.129Z,17.10
2019-01-04T10:49:51.092Z,21.60
2019-01-04T10:50:51.056Z,20.60
2019-01-04T10:51:51.023Z,16.80
2019-01-04T10:52:50.988Z,17.50
2019-01-04T10:53:50.954Z,20.40
2019-01-04T10:54:50.918Z,16.10
2019-01-04T10:55:50.885Z,21.10
2019-01-04T10:56:50.851Z,17.40
2019-01-04T10:57:50.816Z,16.50
2019-01-04T10:58:50.780Z,16.30
2019-01-04T10:59:50.747Z,15.80
2019-01-04T11:00:50.711Z,15.30
2019-01-04T11:01:50.677Z,18.20
2019-01-04T11:02:50.642Z,14.10
2019-01-04T11:03:50.607Z,12.90
2019-01-04T11:04:50.572Z,14.40
2019-01-04T11:05:50.538Z,14.90
2019-01-04T11:06:50.502Z,16.80
2019-01-04T11:07:50.467Z,14.00
2019-01-04T11:08:50.435Z,14.50
2019-01-04T11:09:50.399Z,13.60
2019-01-04T11:10:50.364Z,15.00
2019-01-04T11:11:50.329Z,14.00
2019-01-04T11:12:50.295Z,13.50
2019-01-04T11:13:50.260Z,15.40
2019-01-04T11:14:50.226Z,13.10
2019-01-04T11:15:50.193Z,11.30
2019-01-04T11:16:50.157Z,13.80
2019-01-04T11:17:50.124Z,11.70
2019-01-04T11:18:50.113Z,16.10
2019-01-04T11:19:50.053Z,13.90
2019-01-04T11:20:50.019Z,12.70
2019-01-04T11:21:49.986Z,12.40
2019-01-04T11:22:49.948Z,12.00
2019-01-04T11:23:49.915Z,16.80
2019-01-04T11:24:49.881Z,13.40
2019-01-04T11:25:49.846Z,12.70
2019-01-04T11:26:49.812Z,13.70
2019-01-04T11:27:49.777Z,14.50
2019-01-04T11:28:49.750Z,14.60
2019-01-04T11:29:49.709Z,10.40
2019-01-04T11:30:49.674Z,15.50
2019-01-04T11:31:49.639Z,13.30
2019-01-04T11:32:49.604Z,12.30
2019-01-04T11:33:49.572Z,15.00
2019-01-04T11:34:49.537Z,9.40
2019-01-04T11:35:49.502Z,11.80
2019-01-04T11:36:49.471Z,13.30
2019-01-04T11:37:49.434Z,8.50
2019-01-04T11:38:49.399Z,11.90
2019-01-04T11:39:49.363Z,12.60
2019-01-04T11:40:49.329Z,11.70
2019-01-04T11:41:49.297Z,13.90
2019-01-04T11:42:49.259Z,12.90
2019-01-04T11:43:49.226Z,12.20
2019-01-04T11:44:49.193Z,10.90
2019-01-04T11:45:49.157Z,11.40
2019-01-04T11:46:49.123Z,12.00
2019-01-04T11:47:49.087Z,13.00
2019-01-04T11:48:49.053Z,10.20
2019-01-04T11:49:49.024Z,10.20
2019-01-04T11:50:48.987Z,12.10
2019-01-04T11:51:48.950Z,8.40
2019-01-04T11:52:48.937Z,12.70
2019-01-04T11:53:48.882Z,9.40
2019-01-04T11:54:48.847Z,11.00
2019-01-04T11:55:48.813Z,11.40
2019-01-04T11:56:48.778Z,11.10
2019-01-04T11:57:48.745Z,10.20
2019-01-04T11:58:48.712Z,10.30
2019-01-04T11:59:48.678Z,11.00
2019-01-04T12:00:48.642Z,13.40
2019-01-04T12:01:48.607Z,9.60
2019-01-04T12:02:48.572Z,10.60
2019-01-04T12:03:48.537Z,10.50
2019-01-04T12:04:48.503Z,10.30
2019-01-04T12:05:48.469Z,8.50
2019-01-04T12:06:48.434Z,9.50
2019-01-04T12:07:48.400Z,11.20
2019-01-04T12:08:48.370Z,7.50
2019-01-04T12:09:48.332Z,8.70
2019-01-04T12:10:48.297Z,11.60
2019-01-04T12:11:48.262Z,8.20
2019-01-04T12:12:48.229Z,10.40
2019-01-04T12:13:48.195Z,10.60
2019-01-04T12:14:48.160Z,8.80
2019-01-04T12:15:48.126Z,10.40
2019-01-04T12:16:48.091Z,11.10
2019-01-04T12:17:48.058Z,14.40
2019-01-04T12:18:48.022Z,11.20
2019-01-04T12:19:47.986Z,9.60
2019-01-04T12:20:47.954Z,9.00
2019-01-04T12:21:47.919Z,10.60
2019-01-04T12:22:47.885Z,12.90
2019-01-04T12:23:47.849Z,13.80
2019-01-04T12:24:47.819Z,11.50
2019-01-04T12:25:47.782Z,12.60
2019-01-04T12:26:47.746Z,10.60
2019-01-04T12:27:47.713Z,8.80
2019-01-04T12:28:47.679Z,8.50
2019-01-04T12:29:47.644Z,11.30
2019-01-04T12:30:47.610Z,9.70
2019-01-04T12:31:47.576Z,11.50
2019-01-04T12:32:47.540Z,9.70
2019-01-04T12:33:47.507Z,10.80
2019-01-04T12:34:47.472Z,12.90
2019-01-04T12:35:47.437Z,13.40
2019-01-04T12:36:47.446Z,9.90
2019-01-04T12:37:47.369Z,9.50
2019-01-04T12:38:47.334Z,13.50
2019-01-04T12:39:47.300Z,15.90
2019-01-04T12:40:47.266Z,9.80
2019-01-04T12:41:47.232Z,10.60
2019-01-04T12:42:47.197Z,10.60
2019-01-04T12:43:47.931Z,11.80
2019-01-04T12:44:47.129Z,10.60
2019-01-04T12:45:47.093Z,11.20
2019-01-04T12:46:47.059Z,11.10
2019-01-04T12:47:47.025Z,9.40
2019-01-04T12:48:46.990Z,12.40
2019-01-04T12:49:46.957Z,10.40
2019-01-04T12:50:46.920Z,14.60
2019-01-04T12:51:46.891Z,14.60
2019-01-04T12:52:46.853Z,13.00